createdAt,value
2023-01-07T00:01:31.804Z,98189.69
2023-01-07T00:04:00.715Z,98192.81
2023-01-07T00:06:32.959Z,98199.00
2023-01-07T00:09:01.403Z,98190.91
2023-01-07T00:11:34.101Z,98188.44
2023-01-07T00:14:02.563Z,98190.47
2023-01-07T00:16:32.027Z,98201.09
2023-01-07T00:19:01.357Z,98190.44
2023-01-07T00:21:29.939Z,98197.03
2023-01-07T00:24:00.095Z,98197.59
2023-01-07T00:26:30.956Z,98201.38
2023-01-07T00:28:59.419Z,98192.75
2023-01-07T00:31:32.489Z,98205.81
2023-01-07T00:34:00.930Z,98213.03
2023-01-07T00:36:31.241Z,98206.06
2023-01-07T00:39:01.121Z,98208.72
2023-01-07T00:41:29.645Z,98201.84
2023-01-07T00:43:58.052Z,98199.72
2023-01-07T00:46:26.793Z,98211.84
2023-01-07T00:48:55.213Z,98211.19
2023-01-07T00:51:23.577Z,98210.66
2023-01-07T00:53:51.965Z,98214.03
2023-01-07T00:56:20.409Z,98220.28
2023-01-07T00:58:48.773Z,98207.50
2023-01-07T01:01:17.724Z,98216.06
2023-01-07T01:03:46.929Z,98215.09
2023-01-07T01:06:16.031Z,98222.66
2023-01-07T01:08:45.564Z,98223.09
2023-01-07T01:11:15.371Z,98234.09
2023-01-07T01:13:44.379Z,98225.75
2023-01-07T01:16:16.890Z,98217.25
2023-01-07T01:18:45.565Z,98211.91
2023-01-07T01:21:15.082Z,98219.41
2023-01-07T01:23:43.563Z,98217.28
2023-01-07T01:26:14.678Z,98213.25
2023-01-07T01:28:43.754Z,98204.13
2023-01-07T01:31:13.837Z,98209.63
2023-01-07T01:33:47.494Z,98208.06
2023-01-07T01:36:16.143Z,98201.81
2023-01-07T01:38:44.555Z,98201.28
2023-01-07T01:41:14.406Z,98203.63
2023-01-07T01:43:43.331Z,98206.31
2023-01-07T01:46:34.458Z,98202.41
2023-01-07T01:49:20.267Z,98190.34
2023-01-07T01:51:52.815Z,98190.25
2023-01-07T01:54:21.247Z,98196.69
2023-01-07T01:56:53.995Z,98194.03
2023-01-07T01:59:24.634Z,98193.53
2023-01-07T02:01:55.270Z,98191.97
2023-01-07T02:04:24.873Z,98197.66
2023-01-07T02:07:07.796Z,98190.22
2023-01-07T02:09:39.026Z,98195.91
2023-01-07T02:12:18.423Z,98184.63
2023-01-07T02:15:04.319Z,98189.06
2023-01-07T02:17:57.185Z,98190.78
2023-01-07T02:20:38.474Z,98195.00
2023-01-07T02:23:38.027Z,98192.75
2023-01-07T02:26:53.649Z,98193.00
2023-01-07T02:29:58.724Z,98208.41
2023-01-07T02:32:36.813Z,98205.75
2023-01-07T02:35:30.910Z,98202.59
2023-01-07T02:37:59.583Z,98193.72
2023-01-07T02:40:39.811Z,98198.28
2023-01-07T02:43:17.622Z,98210.59
2023-01-07T02:46:13.930Z,98208.97
2023-01-07T02:48:42.387Z,98201.94
2023-01-07T02:51:10.845Z,98213.09
2023-01-07T02:53:40.093Z,98218.22
2023-01-07T02:56:17.461Z,98209.88
2023-01-07T02:59:17.206Z,98209.88
2023-01-07T03:02:09.934Z,98213.38
2023-01-07T03:04:53.857Z,98206.81
2023-01-07T03:07:22.146Z,98207.66
2023-01-07T03:10:01.966Z,98208.38
2023-01-07T03:12:35.259Z,98206.81
2023-01-07T03:15:28.931Z,98216.03
2023-01-07T03:18:03.660Z,98215.47
2023-01-07T03:20:33.637Z,98217.69
2023-01-07T03:23:02.378Z,98211.97
2023-01-07T03:25:30.751Z,98223.06
2023-01-07T03:27:59.090Z,98220.75
2023-01-07T03:30:29.152Z,98218.06
2023-01-07T03:33:02.676Z,98222.09
2023-01-07T03:35:32.266Z,98212.91
2023-01-07T03:38:01.383Z,98222.38
2023-01-07T03:40:30.495Z,98224.63
2023-01-07T03:42:59.621Z,98232.56
2023-01-07T03:45:28.377Z,98220.53
2023-01-07T03:47:59.517Z,98221.31
2023-01-07T03:50:35.208Z,98219.22
2023-01-07T03:53:03.868Z,98225.44
2023-01-07T03:55:35.915Z,98229.66
2023-01-07T03:58:05.309Z,98225.72
2023-01-07T04:00:33.771Z,98227.47
2023-01-07T04:03:12.153Z,98224.78
2023-01-07T04:05:43.973Z,98223.09
2023-01-07T04:08:13.199Z,98235.75
2023-01-07T04:10:42.627Z,98236.81
2023-01-07T04:13:12.951Z,98234.63
2023-01-07T04:15:45.022Z,98239.34
2023-01-07T04:18:13.695Z,98231.22
2023-01-07T04:20:46.283Z,98229.34
2023-01-07T04:23:15.591Z,98233.31
2023-01-07T04:25:49.493Z,98231.88
2023-01-07T04:28:21.779Z,98236.81
2023-01-07T04:30:50.343Z,98226.34
2023-01-07T04:33:19.434Z,98227.88
2023-01-07T04:35:49.156Z,98235.38
2023-01-07T04:38:18.805Z,98248.16
2023-01-07T04:40:47.381Z,98247.50
2023-01-07T04:43:15.804Z,98236.03
2023-01-07T04:45:44.304Z,98226.41
2023-01-07T04:48:14.672Z,98232.50
2023-01-07T04:50:43.111Z,98243.78
2023-01-07T04:53:11.548Z,98249.09
2023-01-07T04:55:41.294Z,98243.09
2023-01-07T04:58:10.037Z,98250.97
2023-01-07T05:00:39.328Z,98245.03
2023-01-07T05:03:07.777Z,98240.28
2023-01-07T05:05:37.037Z,98247.38
2023-01-07T05:08:05.783Z,98248.16
2023-01-07T05:10:34.235Z,98259.78
2023-01-07T05:13:06.997Z,98250.44
2023-01-07T05:15:37.229Z,98251.00
2023-01-07T05:18:06.337Z,98257.00
2023-01-07T05:20:35.215Z,98251.25
2023-01-07T05:23:06.104Z,98252.25
2023-01-07T05:25:35.989Z,98254.88
2023-01-07T05:28:04.529Z,98260.34
2023-01-07T05:30:36.009Z,98258.44
2023-01-07T05:33:07.540Z,98255.44
2023-01-07T05:35:37.458Z,98261.28
2023-01-07T05:38:05.949Z,98265.66
2023-01-07T05:40:34.692Z,98271.69
2023-01-07T05:43:03.221Z,98268.25
2023-01-07T05:45:31.670Z,98268.53
2023-01-07T05:48:00.109Z,98266.66
2023-01-07T05:50:28.538Z,98262.28
2023-01-07T05:52:56.996Z,98277.94
2023-01-07T05:55:25.315Z,98273.28
2023-01-07T05:57:53.741Z,98273.34
2023-01-07T06:00:22.350Z,98261.00
2023-01-07T06:02:50.762Z,98268.81
2023-01-07T06:05:19.314Z,98271.53
2023-01-07T06:07:47.811Z,98273.81
2023-01-07T06:10:16.278Z,98264.41
2023-01-07T06:12:44.630Z,98269.09
2023-01-07T06:15:13.154Z,98268.56
2023-01-07T06:17:41.648Z,98273.13
2023-01-07T06:20:11.186Z,98274.47
2023-01-07T06:22:39.646Z,98273.25
2023-01-07T06:25:08.358Z,98265.72
2023-01-07T06:27:36.784Z,98275.22
2023-01-07T06:30:06.127Z,98271.16
2023-01-07T06:32:40.619Z,98278.22
2023-01-07T06:35:09.826Z,98270.28
2023-01-07T06:37:38.724Z,98283.31
2023-01-07T06:40:07.871Z,98273.94
2023-01-07T06:42:36.334Z,98281.56
2023-01-07T06:45:04.918Z,98279.00
2023-01-07T06:47:33.337Z,98281.03
2023-01-07T06:50:01.777Z,98276.38
2023-01-07T06:52:30.420Z,98277.97
2023-01-07T06:54:58.751Z,98273.28
2023-01-07T06:57:27.188Z,98283.50
2023-01-07T06:59:55.529Z,98278.84
2023-01-07T07:02:28.197Z,98274.53
2023-01-07T07:04:56.719Z,98270.34
2023-01-07T07:07:25.824Z,98270.31
2023-01-07T07:09:54.225Z,98269.75
2023-01-07T07:12:22.664Z,98262.44
2023-01-07T07:14:51.160Z,98274.13
2023-01-07T07:17:19.576Z,98262.16
2023-01-07T07:19:48.014Z,98269.34
2023-01-07T07:22:16.335Z,98269.81
2023-01-07T07:24:44.834Z,98276.69
2023-01-07T07:27:13.151Z,98273.66
2023-01-07T07:29:41.576Z,98267.72
2023-01-07T07:32:10.195Z,98264.97
2023-01-07T07:34:38.565Z,98264.69
2023-01-07T07:37:07.084Z,98270.47
2023-01-07T07:39:35.391Z,98260.91
2023-01-07T07:42:04.881Z,98256.56
2023-01-07T07:44:33.250Z,98263.09
2023-01-07T07:47:01.721Z,98260.50
2023-01-07T07:49:30.268Z,98260.97
2023-01-07T07:51:58.626Z,98255.59
2023-01-07T07:54:28.490Z,98246.75
2023-01-07T07:56:58.658Z,98247.94
2023-01-07T07:59:27.076Z,98248.97
2023-01-07T08:01:55.524Z,98243.66
2023-01-07T08:04:24.124Z,98253.41
2023-01-07T08:06:52.450Z,98254.53
2023-01-07T08:09:20.961Z,98247.81
2023-01-07T08:11:49.340Z,98241.41
2023-01-07T08:14:17.776Z,98248.19
2023-01-07T08:16:46.323Z,98237.84
2023-01-07T08:19:15.631Z,98245.56
2023-01-07T08:21:44.242Z,98241.97
2023-01-07T08:24:12.781Z,98231.97
2023-01-07T08:26:41.490Z,98241.91
2023-01-07T08:29:10.052Z,98238.81
2023-01-07T08:31:38.625Z,98238.22
2023-01-07T08:34:07.340Z,98241.31
2023-01-07T08:36:35.770Z,98232.25
2023-01-07T08:39:04.312Z,98228.66
2023-01-07T08:41:32.702Z,98228.34
2023-01-07T08:44:01.105Z,98224.88
2023-01-07T08:46:29.474Z,98218.75
2023-01-07T08:48:57.933Z,98218.34
2023-01-07T08:51:26.507Z,98215.56
2023-01-07T08:53:55.677Z,98208.50
2023-01-07T08:56:43.544Z,98208.50
2023-01-07T08:59:38.293Z,98204.72
2023-01-07T09:02:35.664Z,98205.88
2023-01-07T09:05:38.039Z,98195.94
2023-01-07T09:08:37.264Z,98186.88
2023-01-07T09:11:39.738Z,98186.97
2023-01-07T09:14:37.452Z,98176.22
2023-01-07T09:17:36.162Z,98174.09
2023-01-07T09:23:05.981Z,98159.44
2023-01-07T09:25:34.391Z,98158.44
2023-01-07T09:28:02.882Z,98156.91
2023-01-07T09:30:31.306Z,98151.41
2023-01-07T09:32:59.846Z,98146.91
2023-01-07T09:35:28.373Z,98140.00
2023-01-07T09:37:56.937Z,98132.00
2023-01-07T09:40:31.506Z,98134.72
2023-01-07T09:43:09.126Z,98126.94
2023-01-07T09:45:50.749Z,98117.06
2023-01-07T09:48:27.235Z,98119.47
2023-01-07T09:51:14.615Z,98114.03
2023-01-07T09:53:44.671Z,98112.13
2023-01-07T09:56:20.280Z,98106.34
2023-01-07T09:58:49.104Z,98093.13
2023-01-07T10:01:45.126Z,98091.06
2023-01-07T10:04:32.911Z,98091.09
2023-01-07T10:07:23.479Z,98094.59
2023-01-07T10:10:18.488Z,98085.16
2023-01-07T10:13:06.081Z,98081.47
2023-01-07T10:15:41.315Z,98085.91
2023-01-07T10:18:33.834Z,98078.00
2023-01-07T10:21:24.724Z,98073.84
2023-01-07T10:24:05.074Z,98067.59
2023-01-07T10:26:38.406Z,98077.78
2023-01-07T10:29:28.736Z,98072.47
2023-01-07T10:31:57.659Z,98065.69
2023-01-07T10:34:33.068Z,98063.25
2023-01-07T10:37:03.973Z,98053.97
2023-01-07T10:39:58.166Z,98049.66
2023-01-07T10:42:37.620Z,98048.06
2023-01-07T10:45:29.527Z,98044.41
2023-01-07T10:48:26.127Z,98040.84
2023-01-07T10:51:35.204Z,98040.91
2023-01-07T10:54:25.367Z,98028.59
2023-01-07T10:57:01.878Z,98019.59
2023-01-07T10:59:30.565Z,98016.72
2023-01-07T11:01:59.716Z,98015.00
2023-01-07T11:04:28.585Z,98016.03
2023-01-07T11:07:04.700Z,98018.75
2023-01-07T11:09:37.733Z,98004.28
2023-01-07T11:12:15.126Z,98004.66
2023-01-07T11:14:44.438Z,98008.97
2023-01-07T11:17:53.922Z,97993.34
2023-01-07T11:20:54.161Z,97993.78
2023-01-07T11:23:42.804Z,97996.38
2023-01-07T11:26:13.966Z,97987.13
2023-01-07T11:29:14.648Z,97980.50
2023-01-07T11:31:50.141Z,97985.25
2023-01-07T11:34:26.396Z,97974.47
2023-01-07T11:36:56.139Z,97968.38
2023-01-07T11:39:27.842Z,97972.47
2023-01-07T11:42:22.542Z,97957.06
2023-01-07T11:44:57.839Z,97956.53
2023-01-07T11:47:26.974Z,97949.16
2023-01-07T11:49:58.087Z,97946.69
2023-01-07T11:52:27.252Z,97946.47
2023-01-07T11:54:56.780Z,97941.38
2023-01-07T11:57:27.079Z,97933.75
2023-01-07T12:00:17.665Z,97929.19
2023-01-07T12:02:46.343Z,97932.06
2023-01-07T12:05:28.218Z,97921.34
2023-01-07T12:07:58.874Z,97927.13
2023-01-07T12:10:37.978Z,97913.78
2023-01-07T12:13:19.663Z,97917.13
2023-01-07T12:15:55.051Z,97913.75
2023-01-07T12:18:55.709Z,97907.06
2023-01-07T12:21:45.943Z,97905.00
2023-01-07T12:24:34.916Z,97904.22
2023-01-07T12:27:21.505Z,97900.00
2023-01-07T12:30:05.753Z,97896.69
2023-01-07T12:32:46.701Z,97901.41
2023-01-07T12:35:18.784Z,97899.69
2023-01-07T12:38:16.734Z,97893.56
2023-01-07T12:41:00.671Z,97896.88
2023-01-07T12:43:33.328Z,97887.66
2023-01-07T12:46:03.539Z,97893.44
2023-01-07T12:48:47.616Z,97892.84
2023-01-07T12:51:21.499Z,97883.38
2023-01-07T12:54:01.195Z,97880.00
2023-01-07T12:57:20.350Z,97874.22
2023-01-07T13:00:17.671Z,97887.00
2023-01-07T13:03:11.636Z,97886.06
2023-01-07T13:05:43.959Z,97877.13
2023-01-07T13:08:20.903Z,97878.78
2023-01-07T13:10:52.498Z,97872.66
2023-01-07T13:13:51.156Z,97874.09
2023-01-07T13:16:19.583Z,97873.16
2023-01-07T13:18:48.096Z,97866.50
2023-01-07T13:21:17.312Z,97867.50
2023-01-07T13:24:12.043Z,97878.84
2023-01-07T13:27:02.325Z,97872.22
2023-01-07T13:29:54.133Z,97865.63
2023-01-07T13:32:56.384Z,97876.13
2023-01-07T13:35:30.074Z,97869.72
2023-01-07T13:38:14.934Z,97877.06
2023-01-07T13:40:55.626Z,97876.66
2023-01-07T13:43:45.576Z,97883.34
2023-01-07T13:46:19.440Z,97876.13
2023-01-07T13:48:49.654Z,97886.84
2023-01-07T13:51:29.448Z,97873.63
2023-01-07T13:53:58.265Z,97877.38
2023-01-07T13:56:26.673Z,97867.00
2023-01-07T13:58:56.091Z,97868.59
2023-01-07T14:01:34.143Z,97870.75
2023-01-07T14:04:07.199Z,97873.09
2023-01-07T14:06:42.145Z,97880.00
2023-01-07T14:09:13.698Z,97880.91
2023-01-07T14:12:36.349Z,97881.69
2023-01-07T14:15:22.630Z,97875.59
2023-01-07T14:17:56.863Z,97878.75
2023-01-07T14:20:27.361Z,97883.91
2023-01-07T14:23:24.454Z,97879.19
2023-01-07T14:26:15.446Z,97886.75
2023-01-07T14:28:52.712Z,97881.91
2023-01-07T14:31:24.537Z,97885.50
2023-01-07T14:33:58.549Z,97885.06
2023-01-07T14:37:02.040Z,97875.69
2023-01-07T14:39:44.607Z,97879.28
2023-01-07T14:42:28.438Z,97876.38
2023-01-07T14:44:56.976Z,97889.41
2023-01-07T14:47:43.858Z,97886.59
2023-01-07T14:50:27.953Z,97887.47
2023-01-07T14:53:13.030Z,97889.91
2023-01-07T14:55:44.135Z,97888.13
2023-01-07T14:58:24.677Z,97889.47
2023-01-07T15:01:23.765Z,97891.78
2023-01-07T15:03:53.520Z,97902.22
2023-01-07T15:06:51.781Z,97896.03
2023-01-07T15:09:50.174Z,97900.63
2023-01-07T15:12:44.784Z,97900.72
2023-01-07T15:15:50.715Z,97901.72
2023-01-07T15:18:20.052Z,97901.63
2023-01-07T15:21:04.853Z,97909.38
2023-01-07T15:23:50.627Z,97907.44
2023-01-07T15:26:47.428Z,97915.31
2023-01-07T15:29:46.766Z,97914.38
2023-01-07T15:32:28.079Z,97917.72
2023-01-07T15:34:57.718Z,97911.38
2023-01-07T15:37:26.606Z,97918.94
2023-01-07T15:39:57.645Z,97916.28
2023-01-07T15:42:30.264Z,97916.50
2023-01-07T15:45:00.257Z,97915.13
2023-01-07T15:47:40.176Z,97920.09
2023-01-07T15:50:42.211Z,97914.50
2023-01-07T15:53:13.811Z,97925.06
2023-01-07T15:56:08.114Z,97925.78
2023-01-07T15:58:42.850Z,97919.22
2023-01-07T16:01:21.385Z,97915.88
2023-01-07T16:03:55.764Z,97920.28
2023-01-07T16:06:35.902Z,97908.69
2023-01-07T16:09:19.623Z,97913.84
2023-01-07T16:11:50.671Z,97909.84
2023-01-07T16:14:25.799Z,97913.63
2023-01-07T16:17:16.305Z,97915.53
2023-01-07T16:19:46.980Z,97916.72
2023-01-07T16:22:18.652Z,97913.34
2023-01-07T16:24:53.635Z,97905.16
2023-01-07T16:27:32.092Z,97911.38
2023-01-07T16:30:03.367Z,97915.81
2023-01-07T16:32:36.423Z,97917.09
2023-01-07T16:35:16.558Z,97917.13
2023-01-07T16:37:47.370Z,97927.69
2023-01-07T16:40:37.062Z,97926.50
2023-01-07T16:43:06.596Z,97918.56
2023-01-07T16:45:35.995Z,97925.66
2023-01-07T16:48:26.188Z,97923.72
2023-01-07T16:51:02.660Z,97929.78
2023-01-07T16:53:36.200Z,97936.38
2023-01-07T16:56:20.736Z,97948.50
2023-01-07T16:58:53.764Z,97930.13
2023-01-07T17:01:36.497Z,97935.28
2023-01-07T17:04:09.784Z,97935.50
2023-01-07T17:06:43.342Z,97941.53
2023-01-07T17:09:21.692Z,97952.00
2023-01-07T17:11:53.384Z,97945.28
2023-01-07T17:14:36.416Z,97939.22
2023-01-07T17:17:16.162Z,97951.16
2023-01-07T17:19:58.212Z,97953.50
2023-01-07T17:22:34.094Z,97950.56
2023-01-07T17:25:11.300Z,97945.75
2023-01-07T17:27:45.524Z,97954.56
2023-01-07T17:30:19.381Z,97957.41
2023-01-07T17:32:52.064Z,97959.34
2023-01-07T17:35:23.628Z,97958.69
2023-01-07T17:37:53.246Z,97954.06
2023-01-07T17:40:23.024Z,97960.25
2023-01-07T17:43:10.859Z,97960.16
2023-01-07T17:45:41.627Z,97958.41
2023-01-07T17:48:14.868Z,97965.19
2023-01-07T17:50:44.696Z,97960.69
2023-01-07T17:53:21.711Z,97961.66
2023-01-07T17:55:52.087Z,97956.00
2023-01-07T17:58:33.880Z,97955.75
2023-01-07T18:01:07.899Z,97951.03
2023-01-07T18:03:37.457Z,97966.19
2023-01-07T18:06:23.337Z,97959.19
2023-01-07T18:08:53.353Z,97964.53
2023-01-07T18:11:43.134Z,97961.31
2023-01-07T18:14:20.385Z,97962.13
2023-01-07T18:16:51.407Z,97966.25
2023-01-07T18:19:20.686Z,97966.19
2023-01-07T18:21:50.880Z,97964.47
2023-01-07T18:24:23.617Z,97966.34
2023-01-07T18:26:56.846Z,97970.56
2023-01-07T18:29:26.648Z,97960.84
2023-01-07T18:31:58.524Z,97967.22
2023-01-07T18:34:29.527Z,97961.94
2023-01-07T18:36:59.517Z,97967.06
2023-01-07T18:39:29.466Z,97959.16
2023-01-07T18:42:00.907Z,97962.53
2023-01-07T18:44:30.774Z,97957.19
2023-01-07T18:47:00.729Z,97966.28
2023-01-07T18:49:31.022Z,97965.53
2023-01-07T18:52:02.847Z,97960.34
2023-01-07T18:54:34.618Z,97970.59
2023-01-07T18:57:06.821Z,97963.47
2023-01-07T18:59:36.656Z,97962.28
2023-01-07T19:02:09.227Z,97965.63
2023-01-07T19:04:42.544Z,97962.28
2023-01-07T19:07:12.536Z,97959.03
2023-01-07T19:09:42.561Z,97958.47
2023-01-07T19:12:13.155Z,97960.66
2023-01-07T19:14:42.574Z,97953.97
2023-01-07T19:17:13.149Z,97957.00
2023-01-07T19:19:48.773Z,97964.34
2023-01-07T19:22:21.875Z,97958.75
2023-01-07T19:24:56.962Z,97954.56
2023-01-07T19:27:31.020Z,97959.94
2023-01-07T19:30:01.001Z,97952.63
2023-01-07T19:32:32.188Z,97959.28
2023-01-07T19:35:02.531Z,97953.19
2023-01-07T19:37:32.213Z,97944.38
2023-01-07T19:40:01.850Z,97948.81
2023-01-07T19:42:35.508Z,97951.81
2023-01-07T19:45:07.823Z,97955.78
2023-01-07T19:47:41.167Z,97952.13
2023-01-07T19:50:12.492Z,97953.56
2023-01-07T19:52:44.305Z,97957.97
2023-01-07T19:55:15.938Z,97957.19
2023-01-07T19:57:47.095Z,97954.00
2023-01-07T20:00:17.252Z,97959.59
2023-01-07T20:02:47.094Z,97961.50
2023-01-07T20:05:17.635Z,97952.41
2023-01-07T20:07:47.837Z,97963.88
2023-01-07T20:10:26.387Z,97960.25
2023-01-07T20:12:55.794Z,97967.75
2023-01-07T20:15:28.893Z,97964.72
2023-01-07T20:18:00.003Z,97965.16
2023-01-07T20:20:31.519Z,97967.28
2023-01-07T20:23:01.728Z,97960.25
2023-01-07T20:25:31.444Z,97968.94
2023-01-07T20:28:01.029Z,97963.22
2023-01-07T20:30:31.062Z,97967.09
2023-01-07T20:33:01.145Z,97963.84
2023-01-07T20:35:30.780Z,97964.72
2023-01-07T20:37:59.739Z,97966.63
2023-01-07T20:40:30.241Z,97962.00
2023-01-07T20:43:00.548Z,97972.19
2023-01-07T20:45:32.939Z,97966.56
2023-01-07T20:48:04.419Z,97969.91
2023-01-07T20:50:36.132Z,97969.88
2023-01-07T20:53:05.794Z,97966.13
2023-01-07T20:55:37.291Z,97964.44
2023-01-07T20:58:06.947Z,97963.81
2023-01-07T21:00:35.999Z,97966.56
2023-01-07T21:03:06.434Z,97971.97
2023-01-07T21:05:35.509Z,97960.69
2023-01-07T21:08:04.254Z,97968.63
2023-01-07T21:10:33.849Z,97968.53
2023-01-07T21:13:03.590Z,97968.53
2023-01-07T21:15:32.503Z,97966.72
2023-01-07T21:18:01.499Z,97972.81
2023-01-07T21:20:30.805Z,97970.41
2023-01-07T21:23:01.486Z,97970.28
2023-01-07T21:25:30.896Z,97971.31
2023-01-07T21:27:59.677Z,97965.66
2023-01-07T21:30:29.319Z,97965.28
2023-01-07T21:32:58.648Z,97962.00
2023-01-07T21:35:27.556Z,97966.53
2023-01-07T21:37:56.366Z,97958.44
2023-01-07T21:40:25.264Z,97957.13
2023-01-07T21:42:53.686Z,97957.81
2023-01-07T21:45:22.188Z,97947.94
2023-01-07T21:47:50.626Z,97943.44
2023-01-07T21:50:19.153Z,97942.91
2023-01-07T21:52:47.872Z,97946.16
2023-01-07T21:55:16.256Z,97941.94
2023-01-07T21:57:44.814Z,97946.00
2023-01-07T22:00:14.931Z,97944.97
2023-01-07T22:02:45.060Z,97945.19
2023-01-07T22:05:13.575Z,97951.59
2023-01-07T22:07:41.973Z,97945.13
2023-01-07T22:10:10.827Z,97951.72
2023-01-07T22:12:39.880Z,97946.59
2023-01-07T22:15:09.283Z,97937.19
2023-01-07T22:17:37.679Z,97941.06
2023-01-07T22:20:06.621Z,97940.59
2023-01-07T22:22:35.047Z,97935.88
2023-01-07T22:25:03.557Z,97932.72
2023-01-07T22:27:32.008Z,97934.72
2023-01-07T22:30:01.169Z,97929.94
2023-01-07T22:32:30.067Z,97922.69
2023-01-07T22:34:59.181Z,97921.75
2023-01-07T22:37:27.594Z,97925.88
2023-01-07T22:39:59.236Z,97916.16
2023-01-07T22:42:37.784Z,97915.47
2023-01-07T22:45:10.085Z,97913.22
2023-01-07T22:47:39.580Z,97913.19
2023-01-07T22:50:08.765Z,97908.94
2023-01-07T22:52:37.752Z,97909.38
2023-01-07T22:55:06.735Z,97905.34
2023-01-07T22:57:35.400Z,97898.88
2023-01-07T23:00:08.032Z,97895.91
2023-01-07T23:02:36.527Z,97905.38
2023-01-07T23:05:05.295Z,97897.69
2023-01-07T23:07:33.936Z,97887.09
2023-01-07T23:10:02.457Z,97887.66
2023-01-07T23:12:30.789Z,97884.66
2023-01-07T23:14:59.196Z,97887.75
2023-01-07T23:17:29.289Z,97883.88
2023-01-07T23:19:57.612Z,97887.00
2023-01-07T23:22:25.995Z,97884.47
2023-01-07T23:24:54.434Z,97876.47
2023-01-07T23:27:22.909Z,97882.19
2023-01-07T23:29:51.219Z,97869.28
2023-01-07T23:32:19.844Z,97866.28
2023-01-07T23:34:48.227Z,97868.13
2023-01-07T23:37:16.594Z,97867.09
2023-01-07T23:39:44.905Z,97865.22
2023-01-07T23:42:13.317Z,97870.28
2023-01-07T23:44:41.810Z,97865.75
2023-01-07T23:47:10.112Z,97865.06
2023-01-07T23:49:38.651Z,97870.34
2023-01-07T23:52:07.031Z,97868.31
2023-01-07T23:54:35.410Z,97857.50
2023-01-07T23:57:03.904Z,97864.56
2023-01-07T23:59:32.224Z,97857.50
